Latest Weather Observations for Norfolk Island

IDN60801

Issued at 8:42 pm EST Sunday 16 June 2019 (issued every 10 minutes, with the page automatically refreshed every 10 minutes)

About weather observations | Map of weather stations | Latest weather observations for NSW | Other Formats
Station Details ID: 200288 Name: NORFOLK ISLAND AERO Lat: -29.04 Lon: 167.94 Height: 111.73 m
Data from the previous 72 hours. | See also: Recent months at Norfolk Island
Date/Time
EST
Temp
°C
App
Temp
°C
Dew
Point
°C
Rel
Hum
%
Delta-T
°C
Wind Press
QNH
hPa
Press
MSL
hPa
Rain since
9am
mm
Dir  Spd
km/h
Gust
km/h
Spd
kts
Gust
kts
16/08:30pm 15.1 12.6 9.7 70 2.8 ESE 13 15 7 8 1022.3 1022.1 0.0
16/08:00pm 14.3 12.2 9.9 75 2.3 E 11 15 6 8 1022.3 1022.1 0.0
16/07:30pm 15.0 12.6 10.2 73 2.5 E 13 19 7 10 1022.0 1021.8 0.0
16/07:00pm 15.2 12.8 10.0 71 2.7 E 13 17 7 9 1021.7 1021.5 0.0
16/06:30pm 15.1 12.6 9.7 70 2.8 ESE 13 17 7 9 1021.7 1021.5 0.0
16/06:00pm 14.7 12.5 9.5 71 2.7 E 11 15 6 8 1021.7 1021.5 0.0
16/05:30pm 14.5 12.3 9.3 71 2.7 E 11 15 6 8 1021.4 1021.2 0.0
16/05:00pm 14.8 12.7 9.6 71 2.7 E 11 15 6 8 1021.1 1020.9 0.0
16/04:30pm 15.2 13.2 10.0 71 2.7 E 11 15 6 8 1020.6 1020.4 0.0
16/04:00pm 15.7 13.6 9.8 68 3.1 ESE 11 15 6 8 1020.5 1020.3 0.0
16/03:30pm 16.5 14.6 10.4 67 3.2 ESE 11 20 6 11 1020.2 1020.0 0.0
16/03:00pm 17.2 14.9 10.6 65 3.5 ESE 13 19 7 10 1020.1 1019.9 0.0
16/02:30pm 17.6 15.0 10.7 64 3.7 ESE 15 20 8 11 1020.0 1019.8 0.0
16/02:00pm 17.8 15.1 10.2 61 4.1 ESE 15 22 8 12 1020.1 1019.9 0.0
16/01:30pm 18.0 15.1 11.1 64 3.8 SE 17 26 9 14 1020.0 1019.8 0.0
16/01:00pm 18.2 15.4 11.3 64 3.8 ESE 17 26 9 14 1020.0 1019.8 0.0
16/12:30pm 18.2 15.2 12.0 67 3.4 ESE 19 28 10 15 1020.0 1019.8 0.0
16/12:00pm 18.4 15.7 11.7 65 3.7 ESE 17 28 9 15 1020.2 1020.0 0.0
16/11:30am 18.3 15.3 11.8 66 3.6 ESE 19 30 10 16 1020.2 1020.0 0.0
16/11:00am 18.9 16.6 12.9 68 3.4 ESE 17 22 9 12 1020.4 1020.2 0.0
16/10:30am 18.8 16.5 13.0 69 3.3 SE 17 32 9 17 1020.8 1020.6 0.0
16/10:00am 18.3 15.9 12.5 69 3.2 SE 17 26 9 14 1021.0 1020.8 0.0
16/09:30am 18.6 15.9 13.0 70 3.2 SE 19 26 10 14 1021.3 1021.1 0.0
16/09:00am 18.3 16.1 13.2 72 2.9 ESE 17 28 9 15 1021.3 1021.1 0.0
16/08:30am 18.3 16.1 13.4 73 2.8 SE 17 28 9 15 1021.3 1021.1 0.0
16/08:00am 18.2 16.9 13.7 75 2.6 ESE 13 20 7 11 1021.1 1020.9 7.6
16/07:30am 17.7 15.9 13.2 75 2.5 SE 15 20 8 11 1021.0 1020.8 7.6
16/07:00am 17.4 15.9 13.1 76 2.4 SE 13 19 7 10 1020.7 1020.5 7.6
16/06:30am 17.0 14.8 13.3 79 2.1 SE 17 26 9 14 1020.6 1020.4 7.6
16/06:00am 16.9 14.8 13.6 81 1.9 SE 17 26 9 14 1020.3 1020.1 7.6
16/05:30am 16.6 15.1 13.1 80 2.0 ESE 13 19 7 10 1019.8 1019.6 7.6
16/05:00am 16.6 15.0 12.8 78 2.1 SE 13 19 7 10 1019.3 1019.1 7.6
16/04:30am 16.4 15.1 12.6 78 2.1 SE 11 17 6 9 1018.8 1018.6 7.6
16/04:00am 16.4 14.8 12.9 80 2.0 SE 13 15 7 8 1018.4 1018.2 7.6
16/03:30am 16.7 15.3 13.4 81 1.9 SE 13 17 7 9 1018.2 1018.0 7.6
16/03:00am 16.7 15.8 13.6 82 1.8 SE 11 15 6 8 1018.1 1017.9 7.6
16/02:30am 16.8 16.0 14.1 84 1.5 SE 11 17 6 9 1018.2 1018.0 7.6
16/02:00am 16.4 15.8 14.6 89 1.0 SE 11 17 6 9 1018.1 1017.9 7.6
16/01:30am 16.0 15.3 14.4 90 0.9 ESE 11 15 6 8 1018.1 1017.9 7.6
16/01:17am 16.2 15.6 14.7 91 0.9 ESE 11 17 6 9 1018.2 1018.0 7.6
16/01:05am 16.3 15.1 15.0 92 0.8 SE 15 24 8 13 1018.2 1018.0 7.6
16/01:00am 16.4 15.3 15.3 93 0.6 SE 15 24 8 13 1018.3 1018.1 7.6
16/12:30am 16.1 16.4 15.1 94 0.6 ESE 7 9 4 5 1018.2 1018.0 7.6
16/12:00am 16.5 16.6 15.5 94 0.6 ESE 9 11 5 6 1018.3 1018.1 7.6
 
Date/Time
EST
Temp
°C
App
Temp
°C
Dew
Point
°C
Rel
Hum
%
Delta-T
°C
Wind Press
QNH
hPa
Press
MSL
hPa
Rain since
9am
mm
Dir  Spd
km/h
Gust
km/h
Spd
kts
Gust
kts
15/11:30pm 16.3 18.0 15.2 93 0.6 CALM 0 9 0 5 1018.3 1018.1 6.6
15/11:21pm 16.4 18.2 15.4 94 0.6 CALM 0 0 0 0 1018.3 1018.1 6.6
15/11:00pm 16.5 17.9 15.5 94 0.6 ENE 2 6 1 3 1018.3 1018.1 6.6
15/10:36pm 16.4 17.0 15.4 94 0.6 NE 6 7 3 4 1018.5 1018.3 6.6
15/10:30pm 16.4 17.0 15.4 94 0.6 NE 6 7 3 4 1018.5 1018.3 6.6
15/10:00pm 16.5 17.0 15.5 94 0.6 NE 7 9 4 5 1018.4 1018.2 6.6
15/09:30pm 16.2 17.9 15.2 94 0.6 CALM 0 0 0 0 1018.5 1018.3 6.6
15/09:00pm 16.4 17.0 15.4 94 0.6 NE 6 9 3 5 1018.6 1018.4 6.6
15/08:30pm 16.3 16.7 15.3 94 0.6 ENE 7 9 4 5 1018.5 1018.3 6.6
15/08:00pm 16.2 17.5 15.2 94 0.6 ENE 2 4 1 2 1018.4 1018.2 6.6
15/07:30pm 16.3 16.3 15.3 94 0.6 ENE 9 11 5 6 1018.3 1018.1 6.6
15/07:00pm 16.3 16.8 15.5 95 0.5 ESE 7 9 4 5 1018.2 1018.0 6.6
15/06:30pm 16.3 16.4 15.5 95 0.5 ESE 9 11 5 6 1018.0 1017.8 6.6
15/06:00pm 16.4 16.6 15.8 96 0.4 E 9 11 5 6 1017.7 1017.5 6.6
15/05:54pm 16.4 16.6 15.8 96 0.4 ESE 9 13 5 7 1017.7 1017.5 6.6
15/05:30pm 16.3 16.1 15.7 96 0.4 SE 11 15 6 8 1017.7 1017.5 6.6
15/05:21pm 16.3 16.1 15.7 96 0.4 SE 11 17 6 9 1017.6 1017.4 6.6
15/05:00pm 16.3 15.0 15.7 96 0.4 SSE 17 20 9 11 1017.4 1017.2 6.6
15/04:30pm 16.7 14.9 15.9 95 0.5 S 20 28 11 15 1017.2 1017.0 4.8
15/04:00pm 17.6 16.1 16.3 92 0.8 SE 19 26 10 14 1016.6 1016.4 0.2
15/03:57pm 17.6 16.5 16.3 92 0.8 SSE 17 26 9 14 1016.5 1016.3 0.0
15/03:31pm 18.6 18.9 16.0 85 1.6 SW 9 17 5 9 1016.3 1016.1 0.0
15/03:30pm 18.7 18.6 16.1 85 1.6 WSW 11 19 6 10 1016.4 1016.2 0.0
15/03:00pm 19.7 17.9 15.6 77 2.4 W 19 26 10 14 1016.3 1016.1 0.0
15/02:30pm 20.4 17.7 15.6 74 2.9 W 24 33 13 18 1016.1 1015.9 0.0
15/02:00pm 20.7 18.3 15.5 72 3.1 W 22 32 12 17 1016.0 1015.8 0.0
15/01:30pm 20.6 17.4 15.4 72 3.1 W 26 35 14 19 1015.9 1015.7 0.0
15/01:00pm 20.4 16.8 15.2 72 3.1 W 28 35 15 19 1016.0 1015.8 0.0
15/12:30pm 20.4 16.5 15.4 73 3.0 W 30 35 16 19 1016.2 1016.0 0.0
15/12:00pm 20.5 16.7 14.8 70 3.4 W 28 41 15 22 1016.4 1016.2 0.0
15/11:30am 20.2 16.1 15.0 72 3.1 WNW 30 37 16 20 1016.8 1016.6 0.0
15/11:00am 20.8 17.1 14.9 69 3.5 W 28 35 15 19 1017.1 1016.9 0.0
15/10:30am 20.5 17.6 15.1 71 3.2 WNW 24 33 13 18 1017.3 1017.1 0.0
15/10:00am 20.6 17.7 15.2 71 3.2 WNW 24 33 13 18 1017.5 1017.3 0.0
15/09:30am 20.3 16.6 15.1 72 3.1 WNW 28 33 15 18 1017.9 1017.7 0.0
15/09:00am 20.6 17.3 14.9 70 3.4 WNW 26 33 14 18 1018.0 1017.8 0.0
15/08:30am 20.3 16.8 14.4 69 3.5 WNW 26 35 14 19 1018.2 1018.0 0.0
15/08:00am 19.8 16.0 14.8 73 2.9 W 28 37 15 20 1018.0 1017.8 0.0
15/07:30am 19.4 16.4 13.8 70 3.2 W 22 33 12 18 1017.7 1017.5 0.0
15/07:00am 19.1 15.6 14.4 74 2.7 W 26 32 14 17 1017.3 1017.1 0.0
15/06:30am 18.7 16.1 13.8 73 2.8 W 20 30 11 16 1017.2 1017.0 0.0
15/06:00am 18.2 15.3 14.1 77 2.4 W 22 28 12 15 1017.0 1016.8 0.0
15/05:30am 18.2 15.6 13.7 75 2.6 W 20 26 11 14 1016.8 1016.6 0.0
15/05:00am 18.3 15.7 13.8 75 2.6 W 20 30 11 16 1016.4 1016.2 0.0
15/04:30am 17.9 15.2 13.0 73 2.8 W 19 28 10 15 1016.3 1016.1 0.0
15/04:00am 18.1 15.5 13.2 73 2.8 W 19 26 10 14 1016.1 1015.9 0.0
15/03:30am 18.3 15.1 13.2 72 2.9 W 22 30 12 16 1016.0 1015.8 0.0
15/03:00am 18.0 15.4 13.3 74 2.7 W 19 28 10 15 1015.9 1015.7 0.0
15/02:30am 17.8 15.5 13.1 74 2.7 W 17 24 9 13 1016.0 1015.8 0.0
15/02:00am 17.9 15.7 13.4 75 2.6 W 17 28 9 15 1016.2 1016.0 0.0
15/01:30am 18.1 16.0 13.6 75 2.6 W 17 22 9 12 1016.4 1016.2 0.0
15/01:00am 17.8 16.1 13.5 76 2.4 W 15 20 8 11 1016.6 1016.4 0.0
15/12:30am 18.0 16.4 13.9 77 2.4 W 15 20 8 11 1016.9 1016.7 0.0
15/12:00am 17.7 16.3 13.4 76 2.4 W 13 19 7 10 1017.2 1017.0 0.0
 
Date/Time
EST
Temp
°C
App
Temp
°C
Dew
Point
°C
Rel
Hum
%
Delta-T
°C
Wind Press
QNH
hPa
Press
MSL
hPa
Rain since
9am
mm
Dir  Spd
km/h
Gust
km/h
Spd
kts
Gust
kts
14/11:30pm 17.1 16.1 13.4 79 2.1 W 11 19 6 10 1017.2 1017.0 0.0
14/11:00pm 17.1 16.3 13.0 77 2.3 W 9 13 5 7 1017.5 1017.3 0.0
14/10:30pm 16.3 15.5 13.0 81 1.8 W 9 11 5 6 1017.6 1017.4 0.0
14/10:00pm 16.0 15.1 12.6 80 1.9 WSW 9 15 5 8 1017.6 1017.4 0.0
14/09:30pm 16.0 15.1 12.7 81 1.8 WSW 9 11 5 6 1017.7 1017.5 0.0
14/09:00pm 15.9 15.4 12.8 82 1.7 W 7 9 4 5 1017.7 1017.5 0.0
14/08:30pm 15.7 15.2 12.6 82 1.7 W 7 9 4 5 1017.8 1017.6 0.0
14/08:00pm 15.9 15.3 12.3 79 2.0 W 7 9 4 5 1017.8 1017.6 0.0
14/07:30pm 15.6 15.0 12.2 80 1.9 WSW 7 9 4 5 1017.9 1017.7 0.0
14/07:00pm 15.7 15.0 11.9 78 2.1 WSW 7 9 4 5 1017.7 1017.5 0.0
14/06:30pm 16.6 15.1 12.0 74 2.5 WSW 11 15 6 8 1017.5 1017.3 0.0
14/06:00pm 17.0 15.9 12.1 73 2.7 WSW 9 17 5 9 1017.5 1017.3 0.0
14/05:30pm 17.6 15.4 12.1 70 3.0 WSW 15 22 8 12 1017.7 1017.5 0.0
14/05:00pm 17.7 14.8 12.2 70 3.0 WSW 19 24 10 13 1017.6 1017.4 0.0
14/04:30pm 17.7 15.2 12.2 70 3.1 WSW 17 24 9 13 1017.2 1017.0 0.0
14/04:00pm 18.1 15.6 12.3 69 3.2 WSW 17 26 9 14 1017.0 1016.8 0.0
14/03:30pm 18.5 15.7 12.5 68 3.4 WSW 19 24 10 13 1016.9 1016.7 0.0
14/03:00pm 18.3 15.9 12.5 69 3.2 WSW 17 22 9 12 1016.4 1016.2 0.0
14/02:30pm 18.3 15.9 12.7 70 3.1 SW 17 22 9 12 1016.3 1016.1 0.0
14/02:00pm 18.6 16.8 13.2 71 3.1 SW 15 22 8 12 1016.4 1016.2 0.0
14/01:30pm 18.6 18.0 14.5 77 2.4 SW 11 17 6 9 1016.3 1016.1 0.0
14/01:00pm 18.1 16.1 13.8 76 2.5 SW 17 22 9 12 1016.4 1016.2 0.0
14/12:30pm 19.7 17.6 13.6 68 3.5 SW 17 24 9 13 1016.5 1016.3 0.0
14/12:00pm 18.9 16.6 14.0 73 2.8 SW 19 26 10 14 1016.8 1016.6 0.0
14/11:30am 18.9 17.2 14.8 77 2.4 SW 17 26 9 14 1016.9 1016.7 0.0
14/11:00am 18.6 17.2 14.5 77 2.4 SSW 15 20 8 11 1017.3 1017.1 0.0
14/10:30am 19.2 16.8 13.8 71 3.1 SW 19 28 10 15 1017.9 1017.7 0.0
14/10:00am 18.7 16.1 13.1 70 3.2 SW 19 24 10 13 1018.2 1018.0 0.0
14/09:30am 18.7 16.3 12.7 68 3.4 WSW 17 22 9 12 1018.1 1017.9 0.0
14/09:00am 17.8 15.0 13.3 75 2.5 W 20 28 11 15 1018.4 1018.2 0.0
14/08:30am 17.8 14.6 14.3 80 2.0 WSW 24 33 13 18 1018.4 1018.2 0.0
14/08:00am 16.9 13.3 13.0 78 2.2 WSW 24 32 13 17 1018.5 1018.3 0.2
14/07:30am 18.2 15.8 12.6 70 3.1 WSW 17 20 9 11 1018.5 1018.3 0.2
14/07:00am 18.2 15.7 12.4 69 3.2 WSW 17 20 9 11 1018.2 1018.0 0.2
14/06:30am 17.6 15.1 12.3 71 2.9 WSW 17 24 9 13 1018.0 1017.8 0.2
14/06:00am 17.7 15.3 11.5 67 3.4 SW 15 22 8 12 1017.8 1017.6 0.2
14/05:30am 17.1 14.1 10.7 66 3.4 SW 17 26 9 14 1017.7 1017.5 0.2
14/05:00am 17.1 14.1 10.5 65 3.5 SW 17 24 9 13 1017.2 1017.0 0.2
14/04:30am 17.2 14.4 11.5 69 3.1 SW 17 24 9 13 1017.1 1016.9 0.2
14/04:00am 17.1 14.4 11.6 70 3.0 SW 17 26 9 14 1016.9 1016.7 0.2
14/03:30am 17.2 14.5 11.7 70 3.0 SW 17 24 9 13 1016.7 1016.5 0.2
14/03:00am 17.2 14.1 11.5 69 3.1 WSW 19 28 10 15 1016.5 1016.3 0.2
14/02:30am 17.1 14.4 11.6 70 3.0 SW 17 26 9 14 1016.8 1016.6 0.2
14/02:00am 16.8 15.2 11.5 71 2.9 WSW 11 15 6 8 1017.1 1016.9 0.2
14/01:30am 17.0 13.7 11.5 70 3.0 WSW 20 28 11 15 1017.4 1017.2 0.2
14/01:00am 17.2 14.4 12.7 75 2.5 SW 19 30 10 16 1017.5 1017.3 0.2
14/12:30am 17.1 15.3 12.0 72 2.8 WSW 13 26 7 14 1017.9 1017.7 0.2
14/12:00am 17.1 15.2 11.8 71 2.9 SSW 13 20 7 11 1017.6 1017.4 0.2
 
Date/Time
EST
Temp
°C
App
Temp
°C
Dew
Point
°C
Rel
Hum
%
Delta-T
°C
Wind Press
QNH
hPa
Press
MSL
hPa
Rain since
9am
mm
Dir  Spd
km/h
Gust
km/h
Spd
kts
Gust
kts
13/11:30pm 16.3 14.9 12.1 76 2.3 S 11 15 6 8 1017.7 1017.5 0.2
13/11:00pm 17.0 15.1 13.1 78 2.2 SSW 15 22 8 12 1017.8 1017.6 0.2
13/10:30pm 17.2 14.8 12.7 75 2.5 SSW 17 26 9 14 1017.8 1017.6 0.2
13/10:00pm 17.4 15.3 12.3 72 2.8 SSW 15 22 8 12 1017.9 1017.7 0.2
13/09:30pm 16.5 14.9 12.7 78 2.1 WSW 13 19 7 10 1018.0 1017.8 0.2
13/09:00pm 16.1 12.5 13.0 82 1.7 WSW 24 33 13 18 1018.3 1018.1 0.2
13/08:30pm 17.4 14.7 12.9 75 2.5 SW 19 30 10 16 1018.2 1018.0 0.0
13/08:00pm 17.0 14.6 12.5 75 2.5 SW 17 28 9 15 1018.3 1018.1 0.0
13/07:30pm 17.0 13.9 12.3 74 2.6 SW 20 28 11 15 1018.4 1018.2 0.0

Other formats

Comma delimited format used in spreadsheet applications
http://www.bom.gov.au/fwo/IDN60801/IDN60801.94996.axf

JavaScript Object Notation format (JSON) in row-major order
http://www.bom.gov.au/fwo/IDN60801/IDN60801.94996.json

Data quality

Most of these data are generated automatically and are frequently updated. Quality checks on data are not normally performed. It is possible for incorrect values to appear. Refer to information at About Latest Weather Observations and please check the disclaimer before using these data.